Open Full Screen Window  High Contrast Mode
Wind Gusting 14 knots
10
July 24, 2017 12:49 PM EDT
Weather Information
Wind Direction
  350 °
Wind Speed
  10 kt (12 mph)
Wind Gust
  14 kt (16 mph)
Altimeter
29.95 in
Visibility
10 SM
Temperature
25° C
77° F
Dewpoint
18° C
64° F
Humidity
65%
1hr Rain Fall
00.00 in.
24hr Rain Fall
00.01 in.
Sky Condition
Broken @ 4,000 ft
Broken @ 2,800 ft
MVFR

METAR KMRT 241649Z AUTO 35010G14KT 10SM BKN028 BKN040 25/18 A2995 RMK AO2 T02500183

*Background is not an actual portrayal of the airport.